createdAt,value
2019-04-25T00:02:24.844Z,99.90
2019-04-25T00:04:53.444Z,99.90
2019-04-25T00:07:22.699Z,99.90
2019-04-25T00:09:52.999Z,99.90
2019-04-25T00:12:22.320Z,99.90
2019-04-25T00:14:51.339Z,99.90
2019-04-25T00:17:21.430Z,99.90
2019-04-25T00:19:51.046Z,99.90
2019-04-25T00:22:39.276Z,99.90
2019-04-25T00:25:15.948Z,99.90
2019-04-25T00:27:43.266Z,99.90
2019-04-25T00:30:11.331Z,99.90
2019-04-25T00:32:42.153Z,99.90
2019-04-25T00:35:11.709Z,99.90
2019-04-25T00:37:40.371Z,99.90
2019-04-25T00:40:09.168Z,99.90
2019-04-25T00:42:38.012Z,99.90
2019-04-25T00:45:09.755Z,99.90
2019-04-25T00:47:38.307Z,99.90
2019-04-25T00:50:06.999Z,99.90
2019-04-25T00:52:35.478Z,99.90
2019-04-25T00:55:04.551Z,99.90
2019-04-25T00:57:33.199Z,99.90
2019-04-25T01:00:11.823Z,99.90
2019-04-25T01:02:42.359Z,99.90
2019-04-25T01:05:12.143Z,99.90
2019-04-25T01:07:42.207Z,99.90
2019-04-25T01:10:12.712Z,99.90
2019-04-25T01:12:41.690Z,99.90
2019-04-25T01:15:12.483Z,99.90
2019-04-25T01:17:41.359Z,99.90
2019-04-25T01:20:10.952Z,99.90
2019-04-25T01:22:39.725Z,99.90
2019-04-25T01:25:09.982Z,99.90
2019-04-25T01:27:38.899Z,99.90
2019-04-25T01:30:09.291Z,99.90
2019-04-25T01:32:39.069Z,99.90
2019-04-25T01:35:14.034Z,99.90
2019-04-25T01:38:00.967Z,99.90
2019-04-25T01:40:47.108Z,99.90
2019-04-25T01:43:30.663Z,99.90
2019-04-25T01:45:59.351Z,99.90
2019-04-25T01:48:28.132Z,99.90
2019-04-25T01:50:56.747Z,99.90
2019-04-25T01:53:25.303Z,99.90
2019-04-25T01:56:01.579Z,99.90
2019-04-25T01:58:24.115Z,99.90
2019-04-25T02:00:54.635Z,99.90
2019-04-25T02:03:26.994Z,99.90
2019-04-25T02:05:55.237Z,99.90
2019-04-25T02:08:24.079Z,99.90
2019-04-25T02:11:10.476Z,99.90
2019-04-25T02:13:48.058Z,99.90
2019-04-25T02:16:16.956Z,99.90
2019-04-25T02:18:45.741Z,99.90
2019-04-25T02:21:14.271Z,99.90
2019-04-25T02:23:44.218Z,99.90
2019-04-25T02:26:16.708Z,99.90
2019-04-25T02:28:43.805Z,99.90
2019-04-25T02:31:17.608Z,99.90
2019-04-25T02:33:44.231Z,99.90
2019-04-25T02:36:15.064Z,99.90
2019-04-25T02:38:44.263Z,99.90
2019-04-25T02:41:14.704Z,99.90
2019-04-25T02:43:45.039Z,99.90
2019-04-25T02:46:31.439Z,99.90
2019-04-25T02:49:09.125Z,99.90
2019-04-25T02:51:36.396Z,99.90
2019-04-25T02:54:07.839Z,99.90
2019-04-25T02:56:38.690Z,99.90
2019-04-25T02:59:08.755Z,99.90
2019-04-25T03:01:36.084Z,99.90
2019-04-25T03:04:08.594Z,99.90
2019-04-25T03:06:35.308Z,99.90
2019-04-25T03:09:06.421Z,99.90
2019-04-25T03:11:35.652Z,99.90
2019-04-25T03:14:06.611Z,99.90
2019-04-25T03:16:34.936Z,99.90
2019-04-25T03:19:08.284Z,99.90
2019-04-25T03:21:39.569Z,99.90
2019-04-25T03:24:10.411Z,99.90
2019-04-25T03:26:40.644Z,99.90
2019-04-25T03:29:09.314Z,99.90
2019-04-25T03:31:38.263Z,99.90
2019-04-25T03:34:10.273Z,99.90
2019-04-25T03:36:37.376Z,99.90
2019-04-25T03:39:08.757Z,99.90
2019-04-25T03:41:37.334Z,99.90
2019-04-25T03:44:06.505Z,99.90
2019-04-25T03:46:35.102Z,99.90
2019-04-25T03:49:05.311Z,99.90
2019-04-25T03:51:34.578Z,99.90
2019-04-25T03:54:04.873Z,99.90
2019-04-25T03:56:33.443Z,99.90
2019-04-25T03:59:04.826Z,99.90
2019-04-25T04:01:34.128Z,99.90
2019-04-25T04:04:05.417Z,99.90
2019-04-25T04:06:33.985Z,99.90
2019-04-25T04:09:04.586Z,99.90
2019-04-25T04:11:33.719Z,99.90
2019-04-25T04:14:04.924Z,99.90
2019-04-25T04:16:34.565Z,99.90
2019-04-25T04:19:04.900Z,99.90
2019-04-25T04:21:43.839Z,99.90
2019-04-25T04:24:20.099Z,99.90
2019-04-25T04:27:09.020Z,99.90
2019-04-25T04:29:37.791Z,99.90
2019-04-25T04:32:06.975Z,99.90
2019-04-25T04:34:35.943Z,99.90
2019-04-25T04:37:04.668Z,99.90
2019-04-25T04:39:33.835Z,99.90
2019-04-25T04:42:03.833Z,99.90
2019-04-25T04:44:34.180Z,99.90
2019-04-25T04:47:03.955Z,99.90
2019-04-25T04:49:34.094Z,99.90
2019-04-25T04:52:06.162Z,99.90
2019-04-25T04:54:34.426Z,99.90
2019-04-25T04:57:16.683Z,99.90
2019-04-25T04:59:33.814Z,99.90
2019-04-25T05:02:04.126Z,99.90
2019-04-25T05:04:43.590Z,99.90
2019-04-25T05:07:30.644Z,99.90
2019-04-25T05:09:59.428Z,99.90
2019-04-25T05:12:27.875Z,99.90
2019-04-25T05:14:56.697Z,99.90
2019-04-25T05:17:25.458Z,99.90
2019-04-25T05:19:54.060Z,99.90
2019-04-25T05:22:24.285Z,99.90
2019-04-25T05:24:53.526Z,99.90
2019-04-25T05:27:37.121Z,99.90
2019-04-25T05:29:53.879Z,99.90
2019-04-25T05:32:24.136Z,99.90
2019-04-25T05:34:53.257Z,99.90
2019-04-25T05:37:24.072Z,99.90
2019-04-25T05:39:53.569Z,99.90
2019-04-25T05:42:24.799Z,99.90
2019-04-25T05:44:55.958Z,99.90
2019-04-25T05:47:26.060Z,99.90
2019-04-25T05:49:54.810Z,99.90
2019-04-25T05:52:24.318Z,99.90
2019-04-25T05:54:54.069Z,99.90
2019-04-25T05:57:23.924Z,99.90
2019-04-25T05:59:53.740Z,99.90
2019-04-25T06:02:24.470Z,99.90
2019-04-25T06:04:53.516Z,99.90
2019-04-25T06:07:22.150Z,99.90
2019-04-25T06:09:55.134Z,99.90
2019-04-25T06:12:31.538Z,99.90
2019-04-25T06:14:59.989Z,99.90
2019-04-25T06:17:38.622Z,99.90
2019-04-25T06:20:09.151Z,99.90
2019-04-25T06:22:56.119Z,99.90
2019-04-25T06:25:30.723Z,99.90
2019-04-25T06:28:13.730Z,99.90
2019-04-25T06:30:44.220Z,99.90
2019-04-25T06:33:13.373Z,99.90
2019-04-25T06:35:44.061Z,99.90
2019-04-25T06:38:13.336Z,99.90
2019-04-25T06:40:43.607Z,99.90
2019-04-25T06:43:13.476Z,99.90
2019-04-25T06:45:55.804Z,99.90
2019-04-25T06:48:26.265Z,99.90
2019-04-25T06:50:55.663Z,99.90
2019-04-25T06:53:25.487Z,99.90
2019-04-25T06:55:54.556Z,99.90
2019-04-25T06:58:25.660Z,99.90
2019-04-25T07:00:58.769Z,99.90
2019-04-25T07:03:24.924Z,99.90
2019-04-25T07:05:53.792Z,99.90
2019-04-25T07:08:25.437Z,99.90
2019-04-25T07:10:53.975Z,99.90
2019-04-25T07:13:24.660Z,99.90
2019-04-25T07:15:53.454Z,99.90
2019-04-25T07:18:23.536Z,99.90
2019-04-25T07:20:53.385Z,99.90
2019-04-25T07:23:23.535Z,99.90
2019-04-25T07:25:53.896Z,99.90
2019-04-25T07:28:29.032Z,99.90
2019-04-25T07:31:11.431Z,99.90
2019-04-25T07:33:50.246Z,99.90
2019-04-25T07:36:18.727Z,99.90
2019-04-25T07:38:47.255Z,99.90
2019-04-25T07:41:16.393Z,99.90
2019-04-25T07:43:45.276Z,99.90
2019-04-25T07:46:14.134Z,99.90
2019-04-25T07:48:43.863Z,99.90
2019-04-25T07:51:15.870Z,99.90
2019-04-25T07:53:43.658Z,99.90
2019-04-25T07:56:14.090Z,99.90
2019-04-25T07:58:50.550Z,99.90
2019-04-25T08:01:14.947Z,99.90
2019-04-25T08:03:43.994Z,99.90
2019-04-25T08:06:13.703Z,99.90
2019-04-25T08:08:43.574Z,99.90
2019-04-25T08:11:14.001Z,99.90
2019-04-25T08:14:01.134Z,99.90
2019-04-25T08:16:31.224Z,99.90
2019-04-25T08:19:01.239Z,99.90
2019-04-25T08:21:30.635Z,99.90
2019-04-25T08:24:00.551Z,99.90
2019-04-25T08:26:29.542Z,99.90
2019-04-25T08:28:58.218Z,99.90
2019-04-25T08:31:26.749Z,99.90
2019-04-25T08:33:55.340Z,99.90
2019-04-25T08:36:24.127Z,99.90
2019-04-25T08:38:53.451Z,99.90
2019-04-25T08:41:23.807Z,99.90
2019-04-25T08:43:54.312Z,99.90
2019-04-25T08:46:23.784Z,99.90
2019-04-25T08:49:06.111Z,99.90
2019-04-25T08:51:47.466Z,99.90
2019-04-25T08:54:20.362Z,99.90
2019-04-25T08:56:48.921Z,99.90
2019-04-25T08:59:40.725Z,99.90
2019-04-25T09:02:23.937Z,99.90
2019-04-25T09:05:13.837Z,99.90
2019-04-25T09:07:44.201Z,99.90
2019-04-25T09:10:13.508Z,99.90
2019-04-25T09:12:43.930Z,99.90
2019-04-25T09:15:14.091Z,99.90
2019-04-25T09:17:44.503Z,99.60
2019-04-25T09:20:14.043Z,97.10
2019-04-25T09:22:44.239Z,97.20
2019-04-25T09:25:13.808Z,94.40
2019-04-25T09:27:43.763Z,93.70
2019-04-25T09:30:14.338Z,90.60
2019-04-25T09:32:44.603Z,90.90
2019-04-25T09:35:13.756Z,88.80
2019-04-25T09:37:44.795Z,86.90
2019-04-25T09:40:14.643Z,85.20
2019-04-25T09:42:44.135Z,81.90
2019-04-25T09:45:26.406Z,78.50
2019-04-25T09:47:59.438Z,79.20
2019-04-25T09:50:35.026Z,73.90
2019-04-25T09:53:04.554Z,75.10
2019-04-25T09:55:46.845Z,71.90
2019-04-25T09:58:16.055Z,70.40
2019-04-25T10:00:49.198Z,67.80
2019-04-25T10:03:17.879Z,66.00
2019-04-25T10:05:46.872Z,64.10
2019-04-25T10:08:15.665Z,63.10
2019-04-25T10:10:44.699Z,60.80
2019-04-25T10:13:13.270Z,57.20
2019-04-25T10:15:54.549Z,55.60
2019-04-25T10:18:23.511Z,54.20
2019-04-25T10:20:54.128Z,53.10
2019-04-25T10:23:24.055Z,51.60
2019-04-25T10:25:53.743Z,50.80
2019-04-25T10:28:23.390Z,50.60
2019-04-25T10:30:53.105Z,48.70
2019-04-25T10:33:24.387Z,48.20
2019-04-25T10:35:58.948Z,47.90
2019-04-25T10:38:26.662Z,45.60
2019-04-25T10:40:55.671Z,44.70
2019-04-25T10:43:24.563Z,44.20
2019-04-25T10:45:55.087Z,42.70
2019-04-25T10:48:24.101Z,42.40
2019-04-25T10:50:53.896Z,42.60
2019-04-25T10:53:23.253Z,42.80
2019-04-25T10:55:53.567Z,40.10
2019-04-25T10:58:22.459Z,39.80
2019-04-25T11:00:53.076Z,38.50
2019-04-25T11:03:40.735Z,38.50
2019-04-25T11:06:10.167Z,38.70
2019-04-25T11:08:39.499Z,35.70
2019-04-25T11:11:10.488Z,35.30
2019-04-25T11:13:39.223Z,35.20
2019-04-25T11:16:08.315Z,34.20
2019-04-25T11:18:36.903Z,34.90
2019-04-25T11:21:06.083Z,33.40
2019-04-25T11:23:35.227Z,32.50
2019-04-25T11:26:04.057Z,31.00
2019-04-25T11:28:33.776Z,30.30
2019-04-25T11:31:05.275Z,29.70
2019-04-25T11:33:35.099Z,28.90
2019-04-25T11:36:04.182Z,28.50
2019-04-25T11:38:37.611Z,28.40
2019-04-25T11:41:07.938Z,27.30
2019-04-25T11:43:36.699Z,28.10
2019-04-25T11:46:05.763Z,27.40
2019-04-25T11:48:34.383Z,25.90
2019-04-25T11:51:03.721Z,25.00
2019-04-25T11:53:33.895Z,23.90
2019-04-25T11:56:03.691Z,24.00
2019-04-25T11:58:32.496Z,24.40
2019-04-25T12:01:01.082Z,24.30
2019-04-25T12:03:29.554Z,24.30
2019-04-25T12:05:58.146Z,24.50
2019-04-25T12:08:26.767Z,22.90
2019-04-25T12:10:55.218Z,23.70
2019-04-25T12:13:24.344Z,23.90
2019-04-25T12:15:54.554Z,23.60
2019-04-25T12:18:23.235Z,23.60
2019-04-25T12:20:51.686Z,23.40
2019-04-25T12:23:20.158Z,22.50
2019-04-25T12:25:48.607Z,22.80
2019-04-25T12:28:17.086Z,23.10
2019-04-25T12:30:46.221Z,23.50
2019-04-25T12:33:21.069Z,23.50
2019-04-25T12:35:47.804Z,23.30
2019-04-25T12:38:16.771Z,23.90
2019-04-25T12:40:46.876Z,22.20
2019-04-25T12:43:15.446Z,22.90
2019-04-25T12:45:58.307Z,23.20
2019-04-25T12:48:27.017Z,23.40
2019-04-25T12:50:56.659Z,23.00
2019-04-25T12:53:25.232Z,22.90
2019-04-25T12:55:54.857Z,23.50
2019-04-25T12:58:23.578Z,23.60
2019-04-25T13:00:54.974Z,24.40
2019-04-25T13:03:24.151Z,24.60
2019-04-25T13:05:52.721Z,25.50
2019-04-25T13:08:21.266Z,25.90
2019-04-25T13:10:49.954Z,26.00
2019-04-25T13:13:18.800Z,26.20
2019-04-25T13:15:47.251Z,25.80
2019-04-25T13:18:15.724Z,25.60
2019-04-25T13:20:44.170Z,25.80
2019-04-25T13:23:14.408Z,25.60
2019-04-25T13:25:44.171Z,26.20
2019-04-25T13:28:26.802Z,26.90
2019-04-25T13:31:05.486Z,26.40
2019-04-25T13:33:34.258Z,26.00
2019-04-25T13:36:08.255Z,26.10
2019-04-25T13:38:36.942Z,26.20
2019-04-25T13:41:05.784Z,25.50
2019-04-25T13:43:34.673Z,25.40
2019-04-25T13:46:03.196Z,24.80
2019-04-25T13:48:32.381Z,24.50
2019-04-25T13:51:01.339Z,24.70
2019-04-25T13:53:29.827Z,24.90
2019-04-25T13:55:58.518Z,24.50
2019-04-25T13:58:29.527Z,24.00
2019-04-25T14:00:57.838Z,23.80
2019-04-25T14:03:27.269Z,24.30
2019-04-25T14:05:55.887Z,24.60
2019-04-25T14:08:25.598Z,25.20
2019-04-25T14:10:54.358Z,25.20
2019-04-25T14:13:25.113Z,24.40
2019-04-25T14:15:55.687Z,25.00
2019-04-25T14:18:37.854Z,25.20
2019-04-25T14:21:13.694Z,26.40
2019-04-25T14:23:42.235Z,26.40
2019-04-25T14:26:11.117Z,26.40
2019-04-25T14:28:39.734Z,26.70
2019-04-25T14:31:09.899Z,27.00
2019-04-25T14:33:38.815Z,27.10
2019-04-25T14:36:07.479Z,27.10
2019-04-25T14:38:36.747Z,26.90
2019-04-25T14:41:06.197Z,27.00
2019-04-25T14:43:34.678Z,27.50
2019-04-25T14:46:03.334Z,27.00
2019-04-25T14:48:31.882Z,27.50
2019-04-25T14:51:00.335Z,27.00
2019-04-25T14:53:28.819Z,26.80
2019-04-25T14:56:08.038Z,27.00
2019-04-25T14:58:38.471Z,27.50
2019-04-25T15:01:07.459Z,27.70
2019-04-25T15:03:35.907Z,27.70
2019-04-25T15:06:04.522Z,28.20
2019-04-25T15:08:33.325Z,29.20
2019-04-25T15:11:01.867Z,29.00
2019-04-25T15:13:30.316Z,29.50
2019-04-25T15:15:58.863Z,29.30
2019-04-25T15:18:27.311Z,29.30
2019-04-25T15:20:55.794Z,29.50
2019-04-25T15:23:25.330Z,30.00
2019-04-25T15:25:54.039Z,29.20
2019-04-25T15:28:22.487Z,29.60
2019-04-25T15:30:53.236Z,29.80
2019-04-25T15:33:21.887Z,29.50
2019-04-25T15:35:52.481Z,30.00
2019-04-25T15:38:35.567Z,29.60
2019-04-25T15:41:08.843Z,29.70
2019-04-25T15:43:41.630Z,29.80
2019-04-25T15:46:14.830Z,29.70
2019-04-25T15:48:43.351Z,29.50
2019-04-25T15:51:12.129Z,30.10
2019-04-25T15:53:40.668Z,30.20
2019-04-25T15:56:09.114Z,30.40
2019-04-25T15:58:37.875Z,30.40
2019-04-25T16:01:07.040Z,30.50
2019-04-25T16:03:35.515Z,30.80
2019-04-25T16:06:04.243Z,31.30
2019-04-25T16:08:32.993Z,30.80
2019-04-25T16:11:02.025Z,31.40
2019-04-25T16:13:30.507Z,31.60
2019-04-25T16:15:59.293Z,31.70
2019-04-25T16:18:28.455Z,31.80
2019-04-25T16:20:57.106Z,31.60
2019-04-25T16:23:25.859Z,31.50
2019-04-25T16:25:54.322Z,31.60
2019-04-25T16:28:22.874Z,31.50
2019-04-25T16:30:51.462Z,31.90
2019-04-25T16:33:20.010Z,31.90
2019-04-25T16:35:48.458Z,32.50
2019-04-25T16:38:17.775Z,32.40
2019-04-25T16:40:46.559Z,32.10
2019-04-25T16:43:16.670Z,32.50
2019-04-25T16:45:45.326Z,31.80
2019-04-25T16:48:14.163Z,31.90
2019-04-25T16:50:42.755Z,32.50
2019-04-25T16:53:11.314Z,32.50
2019-04-25T16:55:40.829Z,33.30
2019-04-25T16:58:09.658Z,33.30
2019-04-25T17:00:42.793Z,33.70
2019-04-25T17:03:12.675Z,33.80
2019-04-25T17:05:41.339Z,33.50
2019-04-25T17:08:10.454Z,33.90
2019-04-25T17:10:39.517Z,34.10
2019-04-25T17:13:09.038Z,34.50
2019-04-25T17:15:55.791Z,34.50
2019-04-25T17:18:25.943Z,34.60
2019-04-25T17:21:08.173Z,34.60
2019-04-25T17:23:37.046Z,34.80
2019-04-25T17:26:07.051Z,34.60
2019-04-25T17:28:37.315Z,34.70
2019-04-25T17:31:07.546Z,35.20
2019-04-25T17:33:37.796Z,35.00
2019-04-25T17:36:13.672Z,35.10
2019-04-25T17:38:59.158Z,35.10
2019-04-25T17:41:27.683Z,35.50
2019-04-25T17:43:56.158Z,35.80
2019-04-25T17:46:24.611Z,35.40
2019-04-25T17:48:53.241Z,35.50
2019-04-25T17:51:21.756Z,35.70
2019-04-25T17:53:50.304Z,35.80
2019-04-25T17:56:19.239Z,36.20
2019-04-25T17:58:47.717Z,36.50
2019-04-25T18:01:17.946Z,36.30
2019-04-25T18:03:46.423Z,36.70
2019-04-25T18:06:14.875Z,36.90
2019-04-25T18:08:44.162Z,37.10
2019-04-25T18:11:12.818Z,37.00
2019-04-25T18:13:41.376Z,37.20
2019-04-25T18:16:20.319Z,37.40
2019-04-25T18:18:56.255Z,37.40
2019-04-25T18:21:25.048Z,37.30
2019-04-25T18:24:10.440Z,37.40
2019-04-25T18:26:55.626Z,38.20
2019-04-25T18:29:25.820Z,38.40
2019-04-25T18:31:54.683Z,38.90
2019-04-25T18:34:33.518Z,39.20
2019-04-25T18:37:20.044Z,39.50
2019-04-25T18:39:56.402Z,39.10
2019-04-25T18:42:36.439Z,38.70
2019-04-25T18:45:07.801Z,38.70
2019-04-25T18:47:36.966Z,38.90
2019-04-25T18:50:08.118Z,39.40
2019-04-25T18:52:40.770Z,39.40
2019-04-25T18:55:11.239Z,39.40
2019-04-25T18:57:45.485Z,39.60
2019-04-25T19:00:28.081Z,39.80
2019-04-25T19:03:01.238Z,40.40
2019-04-25T19:05:43.455Z,40.20
2019-04-25T19:08:12.170Z,40.80
2019-04-25T19:10:40.811Z,40.20
2019-04-25T19:13:12.837Z,40.20
2019-04-25T19:15:40.329Z,40.60
2019-04-25T19:18:09.756Z,40.70
2019-04-25T19:20:39.008Z,41.00
2019-04-25T19:23:08.602Z,41.30
2019-04-25T19:25:37.054Z,41.40
2019-04-25T19:28:05.670Z,41.50
2019-04-25T19:30:34.191Z,41.70
2019-04-25T19:33:02.752Z,41.80
2019-04-25T19:35:31.270Z,41.70
2019-04-25T19:38:01.455Z,41.30
2019-04-25T19:40:41.130Z,41.00
2019-04-25T19:43:14.594Z,41.40
2019-04-25T19:45:43.046Z,41.90
2019-04-25T19:48:11.522Z,42.40
2019-04-25T19:50:40.548Z,42.70
2019-04-25T19:53:10.284Z,42.80
2019-04-25T19:55:38.759Z,42.90
2019-04-25T19:58:07.279Z,42.80
2019-04-25T20:00:37.084Z,43.00
2019-04-25T20:03:07.467Z,44.20
2019-04-25T20:05:53.819Z,42.30
2019-04-25T20:08:24.047Z,43.60
2019-04-25T20:10:54.167Z,42.70
2019-04-25T20:13:22.691Z,42.40
2019-04-25T20:15:51.759Z,42.60
2019-04-25T20:18:20.471Z,42.50
2019-04-25T20:20:49.935Z,43.60
2019-04-25T20:23:18.578Z,47.70
2019-04-25T20:25:48.278Z,48.50
2019-04-25T20:28:16.857Z,49.40
2019-04-25T20:30:45.994Z,50.70
2019-04-25T20:33:15.513Z,51.20
2019-04-25T20:35:44.883Z,51.50
2019-04-25T20:38:14.470Z,53.80
2019-04-25T20:40:43.057Z,53.20
2019-04-25T20:43:11.535Z,53.00
2019-04-25T20:45:40.600Z,53.60
2019-04-25T20:48:09.155Z,54.40
2019-04-25T20:50:38.079Z,55.20
2019-04-25T20:53:06.627Z,56.00
2019-04-25T20:55:35.074Z,56.80
2019-04-25T20:58:03.795Z,57.80
2019-04-25T21:00:40.457Z,58.70
2019-04-25T21:03:09.107Z,59.60
2019-04-25T21:05:37.650Z,60.30
2019-04-25T21:08:06.122Z,61.60
2019-04-25T21:10:34.710Z,63.40
2019-04-25T21:13:05.162Z,65.20
2019-04-25T21:15:46.995Z,67.30
2019-04-25T21:18:26.082Z,69.50
2019-04-25T21:20:55.018Z,72.50
2019-04-25T21:23:23.543Z,76.20
2019-04-25T21:25:52.932Z,79.30
2019-04-25T21:28:21.599Z,81.80
2019-04-25T21:30:51.269Z,85.10
2019-04-25T21:33:20.247Z,88.00
2019-04-25T21:35:49.267Z,90.40
2019-04-25T21:38:18.162Z,91.50
2019-04-25T21:41:06.462Z,92.40
2019-04-25T21:43:40.094Z,93.40
2019-04-25T21:46:08.955Z,94.60
2019-04-25T21:48:37.679Z,95.60
2019-04-25T21:51:24.166Z,96.40
2019-04-25T21:53:52.837Z,97.30
2019-04-25T21:56:21.766Z,97.90
2019-04-25T21:58:50.224Z,98.10
2019-04-25T22:01:23.930Z,98.80
2019-04-25T22:03:52.572Z,99.10
2019-04-25T22:06:21.707Z,99.30
2019-04-25T22:08:50.230Z,99.80
2019-04-25T22:11:18.787Z,99.90
2019-04-25T22:13:47.524Z,99.90
2019-04-25T22:16:16.347Z,99.90
2019-04-25T22:18:45.271Z,99.90
2019-04-25T22:21:14.264Z,99.90
2019-04-25T22:23:43.115Z,99.90
2019-04-25T22:26:11.648Z,99.90
2019-04-25T22:28:40.394Z,99.90
2019-04-25T22:31:16.668Z,99.90
2019-04-25T22:33:46.900Z,99.90
2019-04-25T22:36:23.146Z,99.90
2019-04-25T22:39:11.099Z,99.90
2019-04-25T22:41:42.564Z,99.90
2019-04-25T22:44:13.475Z,99.90
2019-04-25T22:46:42.850Z,99.90
2019-04-25T22:49:11.831Z,99.90
2019-04-25T22:51:40.482Z,99.90
2019-04-25T22:54:09.537Z,99.90
2019-04-25T22:56:38.047Z,99.90
2019-04-25T22:59:07.232Z,99.90
2019-04-25T23:01:43.514Z,99.90
2019-04-25T23:04:22.702Z,99.90
2019-04-25T23:06:51.178Z,99.90
2019-04-25T23:09:19.708Z,99.90
2019-04-25T23:11:48.434Z,99.90
2019-04-25T23:14:17.190Z,99.90
2019-04-25T23:16:46.063Z,99.90
2019-04-25T23:19:14.617Z,99.90
2019-04-25T23:21:43.740Z,99.90
2019-04-25T23:24:13.964Z,99.90
2019-04-25T23:26:56.482Z,99.90
2019-04-25T23:29:25.362Z,99.90
2019-04-25T23:31:53.958Z,99.90
2019-04-25T23:34:22.811Z,99.90
2019-04-25T23:36:51.627Z,99.90
2019-04-25T23:39:20.379Z,99.90
2019-04-25T23:41:48.902Z,99.90
2019-04-25T23:44:17.459Z,99.90
2019-04-25T23:46:46.680Z,99.90
2019-04-25T23:49:15.226Z,99.90
2019-04-25T23:51:43.679Z,99.90
2019-04-25T23:54:12.967Z,99.90
2019-04-25T23:56:41.835Z,99.90
2019-04-25T23:59:11.502Z,99.90
